Beaverton, OR

1:45 AM PDT on October 31, 2014 (GMT -0700)
Portland-Hillsboro | Change Station
CLOSE
Current Station
Airport
Location: Portland Hillsboro,
Elevation: 203 ft
Nearby Weather Stations

Elev 203 ft 45.54 °N, 122.95 °W | Updated 52 minutes ago

Rain
Rain
57 °F
Feels Like 57 °F
N
6
Wind Variable Wind from East

Today
High -- | Low -- °F
--% Chance of Precip.
Yesterday
High -- | Low -- °F
Precip. -- in
7:49 AM 5:59 PM
First Quarter, 53% visible
Pressure 29.74 in
Visibility 9.0 miles
Clouds Few 2200 ft
Mostly Cloudy 5500 ft
Overcast 9000 ft
Dew Point 56 °F
Humidity 96%
Rainfall 0.03 in
Snow Depth Not available.
UV 0 out of 12
Pollen .40 out of 12
Air Quality Not available.
Flu Activity Not available.
METAR KHIO 310753Z AUTO 09005KT 9SM -RA FEW022 BKN055 OVC090 14/13 A2974 RMK AO2 SLP070 P0003 T01390133 401610117 TSNO

More Conditions Fewer Conditions

Pressure 29.74 in
Visibility 9.0 miles
Clouds Few 2200 ft
Mostly Cloudy 5500 ft
Overcast 9000 ft
Dew Point 56 °F
Humidity 96%
Rainfall 0.03 in
Snow Depth Not available.
UV 0 out of 12
Pollen .40 out of 12
Air Quality Not available.
Flu Activity Not available.
METAR KHIO 310753Z AUTO 09005KT 9SM -RA FEW022 BKN055 OVC090 14/13 A2974 RMK AO2 SLP070 P0003 T01390133 401610117 TSNO

More Conditions Fewer Conditions

10-Day Weather Forecast

Almanac

Astronomy

Oct. 31, 2014 Rise Set
Actual Time
Civil Twilight
Nautical Twilight
Astronomical Twilight
Moon
Length of Visible Light
Length of Day
Tomorrow will be .
, % of the Moon is Illuminated

Today's Extremes

State Highs State Lows

Community

WunderPhotos

Upload Photos

1,766,573 photos uploaded!

WunderBlogs® & News

Nearby

Air Quality

  Air Quality AQ Index Pollutant
Not available.

Snow Depth

Station Depth Elevation

Earthquake Activity

City Distance Mag. Time & Date
Minimum magnitude displayed is 2.5.

Coastal Water Temperatures

Place Temperature

Nearby Weather Stations